Berlin, Arkansas
Current Conditions -  °F | °C
As of 9:15 AM on Sunday 21 Dec 2014 (Local Time) from KBQP Reporting Station
Clear Clear  
Wind Chill: 45°   Ceiling: Unl
Heat Index: 45°   Visibility: 10mi
Dew Point: 40°   Wind: 0mph
Humidity: 85%   Direction: NA
Pressure: 30.19"   Gusts: NA
Location:  33.1762°N, 91.7595°W
Report Text: KBQP 211515Z AUTO 00000KT 10SM CLR 07/05 A3019 RMK AO2 T00700046
Loading
Personal Weather Stations






























Interactive Weather Map New forecast layout! Learn more

10-Day Weather Forecast

Advertisements
Track Severe Weather on mobile